Terminal Aerodrome Forecast
Issued by NWS Charleston, WV

Current Version | Previous Version | Text Only | Print | Product List | Glossary Off
Versions: 1 2 3 4 5 6 7 8 9 10 11 12 13 14 15 16 17 18 19 20 21 22 23 24 25 26 27 28 29

000
FTUS41 KRLX 011400 AAA
TAFBKW
TAF AMD
KBKW 011434Z 0115/0212 26005KT P6SM BKN015 BKN025
     FM011600 26008KT P6SM BKN035
     FM011800 25009KT P6SM SCT040
     FM020200 22005KT P6SM SCT035
     FM020700 20003KT 6SM BR BKN025=

USA.gov is the U.S. government's official web portal to all federal, state and local government web resources and services.